sensor_id;sensor_type;location;lat;lon;timestamp;P1;durP1;ratioP1;P2;durP2;ratioP2
33421;SDS011;19763;55.798;37.782;2023-05-10T00:00:33;15.48;;;8.93;;
33421;SDS011;19763;55.798;37.782;2023-05-10T00:02:59;18.67;;;9.00;;
33421;SDS011;19763;55.798;37.782;2023-05-10T00:05:25;17.15;;;7.95;;
33421;SDS011;19763;55.798;37.782;2023-05-10T00:07:50;12.50;;;8.05;;
33421;SDS011;19763;55.798;37.782;2023-05-10T00:10:16;18.05;;;8.43;;
33421;SDS011;19763;55.798;37.782;2023-05-10T00:12:42;13.98;;;8.70;;
33421;SDS011;19763;55.798;37.782;2023-05-10T00:15:07;18.27;;;9.82;;
33421;SDS011;19763;55.798;37.782;2023-05-10T00:17:34;13.57;;;8.52;;
33421;SDS011;19763;55.798;37.782;2023-05-10T00:19:59;12.88;;;8.18;;
33421;SDS011;19763;55.798;37.782;2023-05-10T00:22:25;15.73;;;8.70;;
33421;SDS011;19763;55.798;37.782;2023-05-10T00:24:51;15.32;;;7.97;;
33421;SDS011;19763;55.798;37.782;2023-05-10T00:27:16;14.02;;;8.75;;
33421;SDS011;19763;55.798;37.782;2023-05-10T00:29:42;13.85;;;9.02;;
33421;SDS011;19763;55.798;37.782;2023-05-10T00:32:07;17.35;;;9.32;;
33421;SDS011;19763;55.798;37.782;2023-05-10T00:34:33;18.77;;;8.73;;
33421;SDS011;19763;55.798;37.782;2023-05-10T00:36:59;16.60;;;9.55;;
33421;SDS011;19763;55.798;37.782;2023-05-10T00:39:24;14.57;;;9.43;;
33421;SDS011;19763;55.798;37.782;2023-05-10T00:41:51;23.08;;;9.35;;
33421;SDS011;19763;55.798;37.782;2023-05-10T00:44:17;14.57;;;8.57;;
33421;SDS011;19763;55.798;37.782;2023-05-10T00:46:43;18.17;;;9.63;;
33421;SDS011;19763;55.798;37.782;2023-05-10T00:49:09;16.13;;;9.25;;
33421;SDS011;19763;55.798;37.782;2023-05-10T00:51:35;17.58;;;9.43;;
33421;SDS011;19763;55.798;37.782;2023-05-10T00:54:02;20.02;;;9.38;;
33421;SDS011;19763;55.798;37.782;2023-05-10T00:56:28;16.67;;;9.70;;
33421;SDS011;19763;55.798;37.782;2023-05-10T00:58:55;18.58;;;9.20;;
33421;SDS011;19763;55.798;37.782;2023-05-10T01:01:21;19.40;;;9.73;;
33421;SDS011;19763;55.798;37.782;2023-05-10T01:03:46;17.98;;;9.48;;
33421;SDS011;19763;55.798;37.782;2023-05-10T01:06:12;15.48;;;9.60;;
33421;SDS011;19763;55.798;37.782;2023-05-10T01:08:38;18.85;;;8.88;;
33421;SDS011;19763;55.798;37.782;2023-05-10T01:11:04;16.30;;;9.50;;
33421;SDS011;19763;55.798;37.782;2023-05-10T01:13:34;17.30;;;9.70;;
33421;SDS011;19763;55.798;37.782;2023-05-10T01:16:06;20.13;;;9.80;;
33421;SDS011;19763;55.798;37.782;2023-05-10T01:18:36;17.42;;;10.38;;
33421;SDS011;19763;55.798;37.782;2023-05-10T01:29:42;14.25;;;9.38;;
33421;SDS011;19763;55.798;37.782;2023-05-10T01:35:34;19.27;;;9.63;;
33421;SDS011;19763;55.798;37.782;2023-05-10T01:38:17;18.65;;;10.27;;
33421;SDS011;19763;55.798;37.782;2023-05-10T01:43:32;13.32;;;8.57;;
33421;SDS011;19763;55.798;37.782;2023-05-10T01:46:07;14.43;;;8.82;;
33421;SDS011;19763;55.798;37.782;2023-05-10T01:48:37;17.10;;;9.43;;
33421;SDS011;19763;55.798;37.782;2023-05-10T01:51:11;18.95;;;8.95;;
33421;SDS011;19763;55.798;37.782;2023-05-10T01:53:40;17.27;;;8.48;;
33421;SDS011;19763;55.798;37.782;2023-05-10T01:56:08;19.48;;;9.50;;
33421;SDS011;19763;55.798;37.782;2023-05-10T01:58:36;18.35;;;8.95;;
33421;SDS011;19763;55.798;37.782;2023-05-10T02:01:07;15.57;;;9.20;;
33421;SDS011;19763;55.798;37.782;2023-05-10T02:03:34;13.23;;;8.48;;
33421;SDS011;19763;55.798;37.782;2023-05-10T02:06:02;14.32;;;9.23;;
33421;SDS011;19763;55.798;37.782;2023-05-10T02:08:29;14.43;;;8.25;;
33421;SDS011;19763;55.798;37.782;2023-05-10T02:10:56;17.83;;;8.48;;
33421;SDS011;19763;55.798;37.782;2023-05-10T02:13:24;14.15;;;7.95;;
33421;SDS011;19763;55.798;37.782;2023-05-10T02:15:52;18.63;;;8.45;;
33421;SDS011;19763;55.798;37.782;2023-05-10T02:18:18;12.20;;;8.00;;
33421;SDS011;19763;55.798;37.782;2023-05-10T02:20:45;15.60;;;7.85;;
33421;SDS011;19763;55.798;37.782;2023-05-10T02:23:12;14.18;;;7.28;;
33421;SDS011;19763;55.798;37.782;2023-05-10T02:25:39;15.90;;;7.82;;
33421;SDS011;19763;55.798;37.782;2023-05-10T02:28:05;14.90;;;7.85;;
33421;SDS011;19763;55.798;37.782;2023-05-10T02:30:32;18.10;;;9.07;;
33421;SDS011;19763;55.798;37.782;2023-05-10T02:33:00;16.02;;;8.30;;
33421;SDS011;19763;55.798;37.782;2023-05-10T02:35:27;15.30;;;8.75;;
33421;SDS011;19763;55.798;37.782;2023-05-10T02:37:54;14.80;;;8.18;;
33421;SDS011;19763;55.798;37.782;2023-05-10T02:40:21;15.82;;;8.85;;
33421;SDS011;19763;55.798;37.782;2023-05-10T02:42:50;14.02;;;8.63;;
33421;SDS011;19763;55.798;37.782;2023-05-10T02:45:19;12.20;;;7.85;;
33421;SDS011;19763;55.798;37.782;2023-05-10T02:47:47;14.77;;;7.15;;
33421;SDS011;19763;55.798;37.782;2023-05-10T02:50:13;11.23;;;7.25;;
33421;SDS011;19763;55.798;37.782;2023-05-10T02:52:43;10.30;;;6.93;;
33421;SDS011;19763;55.798;37.782;2023-05-10T02:55:13;14.52;;;7.82;;
33421;SDS011;19763;55.798;37.782;2023-05-10T02:57:41;15.88;;;8.15;;
33421;SDS011;19763;55.798;37.782;2023-05-10T03:00:12;13.17;;;8.33;;
33421;SDS011;19763;55.798;37.782;2023-05-10T03:02:37;16.08;;;7.97;;
33421;SDS011;19763;55.798;37.782;2023-05-10T03:05:03;10.55;;;6.82;;
33421;SDS011;19763;55.798;37.782;2023-05-10T03:07:29;15.48;;;7.00;;
33421;SDS011;19763;55.798;37.782;2023-05-10T03:09:54;13.90;;;7.57;;
33421;SDS011;19763;55.798;37.782;2023-05-10T03:12:27;24.63;;;9.95;;
33421;SDS011;19763;55.798;37.782;2023-05-10T03:17:48;14.95;;;8.15;;
33421;SDS011;19763;55.798;37.782;2023-05-10T03:20:25;17.83;;;8.45;;
33421;SDS011;19763;55.798;37.782;2023-05-10T03:23:00;11.35;;;6.90;;
33421;SDS011;19763;55.798;37.782;2023-05-10T03:25:33;18.40;;;7.85;;
33421;SDS011;19763;55.798;37.782;2023-05-10T03:28:00;17.55;;;8.27;;
33421;SDS011;19763;55.798;37.782;2023-05-10T03:30:27;13.80;;;7.68;;
33421;SDS011;19763;55.798;37.782;2023-05-10T03:32:53;9.80;;;6.72;;
33421;SDS011;19763;55.798;37.782;2023-05-10T03:35:19;14.65;;;7.22;;
33421;SDS011;19763;55.798;37.782;2023-05-10T03:37:45;16.15;;;7.35;;
33421;SDS011;19763;55.798;37.782;2023-05-10T03:40:10;13.10;;;6.88;;
33421;SDS011;19763;55.798;37.782;2023-05-10T03:42:36;13.95;;;6.22;;
33421;SDS011;19763;55.798;37.782;2023-05-10T03:45:02;14.10;;;7.03;;
33421;SDS011;19763;55.798;37.782;2023-05-10T03:47:29;12.80;;;6.65;;
33421;SDS011;19763;55.798;37.782;2023-05-10T03:49:54;13.85;;;6.57;;
33421;SDS011;19763;55.798;37.782;2023-05-10T03:52:20;9.68;;;6.00;;
33421;SDS011;19763;55.798;37.782;2023-05-10T03:54:46;10.93;;;5.85;;
33421;SDS011;19763;55.798;37.782;2023-05-10T03:57:11;13.13;;;6.53;;
33421;SDS011;19763;55.798;37.782;2023-05-10T03:59:37;7.47;;;5.85;;
33421;SDS011;19763;55.798;37.782;2023-05-10T04:02:02;11.57;;;5.90;;
33421;SDS011;19763;55.798;37.782;2023-05-10T04:04:28;12.05;;;5.90;;
33421;SDS011;19763;55.798;37.782;2023-05-10T04:06:55;10.50;;;5.80;;
33421;SDS011;19763;55.798;37.782;2023-05-10T04:09:20;11.82;;;5.60;;
33421;SDS011;19763;55.798;37.782;2023-05-10T04:11:46;11.07;;;6.10;;
33421;SDS011;19763;55.798;37.782;2023-05-10T04:14:12;8.82;;;5.60;;
33421;SDS011;19763;55.798;37.782;2023-05-10T04:16:37;8.75;;;5.32;;
33421;SDS011;19763;55.798;37.782;2023-05-10T04:19:03;12.82;;;5.65;;
33421;SDS011;19763;55.798;37.782;2023-05-10T04:21:29;7.40;;;5.18;;
33421;SDS011;19763;55.798;37.782;2023-05-10T04:23:55;10.73;;;5.30;;
33421;SDS011;19763;55.798;37.782;2023-05-10T04:26:21;12.75;;;5.38;;
33421;SDS011;19763;55.798;37.782;2023-05-10T04:28:47;8.98;;;5.40;;
33421;SDS011;19763;55.798;37.782;2023-05-10T04:31:12;9.45;;;4.80;;
33421;SDS011;19763;55.798;37.782;2023-05-10T04:33:38;9.23;;;5.13;;
33421;SDS011;19763;55.798;37.782;2023-05-10T04:36:04;10.93;;;5.22;;
33421;SDS011;19763;55.798;37.782;2023-05-10T04:38:30;11.35;;;4.82;;
33421;SDS011;19763;55.798;37.782;2023-05-10T04:41:08;10.77;;;4.72;;
33421;SDS011;19763;55.798;37.782;2023-05-10T04:43:35;10.63;;;4.43;;
33421;SDS011;19763;55.798;37.782;2023-05-10T04:46:01;9.68;;;4.15;;
33421;SDS011;19763;55.798;37.782;2023-05-10T04:48:27;10.13;;;4.43;;
33421;SDS011;19763;55.798;37.782;2023-05-10T04:50:52;8.55;;;4.07;;
33421;SDS011;19763;55.798;37.782;2023-05-10T04:53:18;8.07;;;3.88;;
33421;SDS011;19763;55.798;37.782;2023-05-10T04:55:44;6.95;;;3.70;;
33421;SDS011;19763;55.798;37.782;2023-05-10T04:58:10;7.60;;;4.20;;
33421;SDS011;19763;55.798;37.782;2023-05-10T05:00:35;7.55;;;3.95;;
33421;SDS011;19763;55.798;37.782;2023-05-10T05:03:01;7.90;;;3.83;;
33421;SDS011;19763;55.798;37.782;2023-05-10T05:05:27;6.45;;;3.65;;
33421;SDS011;19763;55.798;37.782;2023-05-10T05:07:52;8.75;;;4.03;;
33421;SDS011;19763;55.798;37.782;2023-05-10T05:10:18;9.02;;;3.58;;
33421;SDS011;19763;55.798;37.782;2023-05-10T05:12:43;7.72;;;3.80;;
33421;SDS011;19763;55.798;37.782;2023-05-10T05:15:10;7.75;;;3.72;;
33421;SDS011;19763;55.798;37.782;2023-05-10T05:17:36;9.02;;;3.97;;
33421;SDS011;19763;55.798;37.782;2023-05-10T05:20:02;6.95;;;3.78;;
33421;SDS011;19763;55.798;37.782;2023-05-10T05:22:29;8.02;;;4.20;;
33421;SDS011;19763;55.798;37.782;2023-05-10T05:24:55;15.90;;;5.13;;
33421;SDS011;19763;55.798;37.782;2023-05-10T05:27:21;4.40;;;3.30;;
33421;SDS011;19763;55.798;37.782;2023-05-10T05:29:49;15.05;;;4.32;;
33421;SDS011;19763;55.798;37.782;2023-05-10T05:32:16;20.88;;;4.90;;
33421;SDS011;19763;55.798;37.782;2023-05-10T05:34:43;15.02;;;3.58;;
33421;SDS011;19763;55.798;37.782;2023-05-10T05:37:12;9.02;;;4.13;;
33421;SDS011;19763;55.798;37.782;2023-05-10T05:39:42;6.07;;;3.42;;
33421;SDS011;19763;55.798;37.782;2023-05-10T05:42:08;7.43;;;3.22;;
33421;SDS011;19763;55.798;37.782;2023-05-10T05:44:34;6.15;;;3.42;;
33421;SDS011;19763;55.798;37.782;2023-05-10T05:47:00;10.02;;;3.50;;
33421;SDS011;19763;55.798;37.782;2023-05-10T05:49:26;6.63;;;3.35;;
33421;SDS011;19763;55.798;37.782;2023-05-10T05:51:51;8.23;;;3.35;;
33421;SDS011;19763;55.798;37.782;2023-05-10T05:54:17;8.10;;;3.13;;
33421;SDS011;19763;55.798;37.782;2023-05-10T05:56:42;7.47;;;2.80;;
33421;SDS011;19763;55.798;37.782;2023-05-10T05:59:09;8.60;;;3.53;;
33421;SDS011;19763;55.798;37.782;2023-05-10T06:01:35;6.13;;;3.00;;
33421;SDS011;19763;55.798;37.782;2023-05-10T06:04:01;7.38;;;3.38;;
33421;SDS011;19763;55.798;37.782;2023-05-10T06:06:27;7.03;;;3.30;;
33421;SDS011;19763;55.798;37.782;2023-05-10T06:08:52;5.93;;;2.38;;
33421;SDS011;19763;55.798;37.782;2023-05-10T06:11:18;5.68;;;2.97;;
33421;SDS011;19763;55.798;37.782;2023-05-10T06:13:44;7.50;;;2.90;;
33421;SDS011;19763;55.798;37.782;2023-05-10T06:16:09;6.72;;;3.15;;
33421;SDS011;19763;55.798;37.782;2023-05-10T06:18:35;5.28;;;3.20;;
33421;SDS011;19763;55.798;37.782;2023-05-10T06:21:01;7.82;;;2.95;;
33421;SDS011;19763;55.798;37.782;2023-05-10T06:23:26;7.32;;;2.92;;
33421;SDS011;19763;55.798;37.782;2023-05-10T06:25:52;8.30;;;2.78;;
33421;SDS011;19763;55.798;37.782;2023-05-10T06:28:17;10.10;;;3.00;;
33421;SDS011;19763;55.798;37.782;2023-05-10T06:30:43;7.38;;;3.33;;
33421;SDS011;19763;55.798;37.782;2023-05-10T06:33:09;3.75;;;2.97;;
33421;SDS011;19763;55.798;37.782;2023-05-10T06:35:35;6.53;;;2.95;;
33421;SDS011;19763;55.798;37.782;2023-05-10T06:38:01;6.65;;;2.90;;
33421;SDS011;19763;55.798;37.782;2023-05-10T06:40:27;6.18;;;3.10;;
33421;SDS011;19763;55.798;37.782;2023-05-10T06:42:53;3.95;;;2.80;;
33421;SDS011;19763;55.798;37.782;2023-05-10T06:45:18;7.07;;;2.45;;
33421;SDS011;19763;55.798;37.782;2023-05-10T06:47:44;4.60;;;2.70;;
33421;SDS011;19763;55.798;37.782;2023-05-10T06:50:10;9.77;;;2.95;;
33421;SDS011;19763;55.798;37.782;2023-05-10T06:52:37;4.20;;;2.40;;
33421;SDS011;19763;55.798;37.782;2023-05-10T06:55:03;6.95;;;2.80;;
33421;SDS011;19763;55.798;37.782;2023-05-10T06:57:30;4.85;;;2.85;;
33421;SDS011;19763;55.798;37.782;2023-05-10T06:59:55;5.80;;;2.75;;
33421;SDS011;19763;55.798;37.782;2023-05-10T07:02:21;5.25;;;2.65;;
33421;SDS011;19763;55.798;37.782;2023-05-10T07:04:47;5.38;;;2.92;;
33421;SDS011;19763;55.798;37.782;2023-05-10T07:07:13;5.20;;;3.08;;
33421;SDS011;19763;55.798;37.782;2023-05-10T07:09:40;6.07;;;3.25;;
33421;SDS011;19763;55.798;37.782;2023-05-10T07:12:06;8.60;;;3.17;;
33421;SDS011;19763;55.798;37.782;2023-05-10T07:14:31;6.60;;;2.40;;
33421;SDS011;19763;55.798;37.782;2023-05-10T07:16:57;7.93;;;2.85;;
33421;SDS011;19763;55.798;37.782;2023-05-10T07:19:23;4.68;;;2.15;;
33421;SDS011;19763;55.798;37.782;2023-05-10T07:21:48;3.95;;;2.72;;
33421;SDS011;19763;55.798;37.782;2023-05-10T07:24:15;6.20;;;2.45;;
33421;SDS011;19763;55.798;37.782;2023-05-10T07:26:40;5.70;;;2.70;;
33421;SDS011;19763;55.798;37.782;2023-05-10T07:29:06;4.03;;;3.15;;
33421;SDS011;19763;55.798;37.782;2023-05-10T07:31:31;8.93;;;2.53;;
33421;SDS011;19763;55.798;37.782;2023-05-10T07:33:57;4.80;;;2.67;;
33421;SDS011;19763;55.798;37.782;2023-05-10T07:36:23;4.60;;;2.58;;
33421;SDS011;19763;55.798;37.782;2023-05-10T07:38:48;4.07;;;2.25;;
33421;SDS011;19763;55.798;37.782;2023-05-10T07:41:14;5.07;;;2.70;;
33421;SDS011;19763;55.798;37.782;2023-05-10T07:43:40;6.57;;;2.53;;
33421;SDS011;19763;55.798;37.782;2023-05-10T07:46:05;7.68;;;2.60;;
33421;SDS011;19763;55.798;37.782;2023-05-10T07:48:31;5.60;;;2.95;;
33421;SDS011;19763;55.798;37.782;2023-05-10T07:50:57;3.35;;;2.22;;
33421;SDS011;19763;55.798;37.782;2023-05-10T07:53:22;4.78;;;2.70;;
33421;SDS011;19763;55.798;37.782;2023-05-10T07:55:51;3.63;;;2.33;;
33421;SDS011;19763;55.798;37.782;2023-05-10T07:58:23;6.47;;;3.13;;
33421;SDS011;19763;55.798;37.782;2023-05-10T08:00:49;4.38;;;2.90;;
33421;SDS011;19763;55.798;37.782;2023-05-10T08:03:14;4.15;;;2.60;;
33421;SDS011;19763;55.798;37.782;2023-05-10T08:05:40;4.53;;;2.60;;
33421;SDS011;19763;55.798;37.782;2023-05-10T08:08:06;6.05;;;3.00;;
33421;SDS011;19763;55.798;37.782;2023-05-10T08:10:32;7.10;;;2.85;;
33421;SDS011;19763;55.798;37.782;2023-05-10T08:12:57;5.20;;;2.53;;
33421;SDS011;19763;55.798;37.782;2023-05-10T08:15:26;5.95;;;2.40;;
33421;SDS011;19763;55.798;37.782;2023-05-10T08:17:52;7.85;;;2.40;;
33421;SDS011;19763;55.798;37.782;2023-05-10T08:20:17;5.00;;;2.65;;
33421;SDS011;19763;55.798;37.782;2023-05-10T08:22:47;4.32;;;2.35;;
33421;SDS011;19763;55.798;37.782;2023-05-10T08:25:12;3.90;;;2.20;;
33421;SDS011;19763;55.798;37.782;2023-05-10T08:27:38;3.88;;;2.05;;
33421;SDS011;19763;55.798;37.782;2023-05-10T08:30:03;5.13;;;2.65;;
33421;SDS011;19763;55.798;37.782;2023-05-10T08:32:30;3.92;;;2.13;;
33421;SDS011;19763;55.798;37.782;2023-05-10T08:34:56;2.90;;;2.45;;
33421;SDS011;19763;55.798;37.782;2023-05-10T08:37:25;5.10;;;2.65;;
33421;SDS011;19763;55.798;37.782;2023-05-10T08:39:50;4.15;;;2.53;;
33421;SDS011;19763;55.798;37.782;2023-05-10T08:42:16;5.40;;;2.08;;
33421;SDS011;19763;55.798;37.782;2023-05-10T08:44:46;2.88;;;2.50;;
33421;SDS011;19763;55.798;37.782;2023-05-10T08:47:13;3.88;;;2.38;;
33421;SDS011;19763;55.798;37.782;2023-05-10T08:49:41;5.20;;;2.33;;
33421;SDS011;19763;55.798;37.782;2023-05-10T08:52:09;5.93;;;2.30;;
33421;SDS011;19763;55.798;37.782;2023-05-10T08:54:38;6.25;;;2.50;;
33421;SDS011;19763;55.798;37.782;2023-05-10T08:57:04;2.58;;;1.90;;
33421;SDS011;19763;55.798;37.782;2023-05-10T08:59:29;4.50;;;2.65;;
33421;SDS011;19763;55.798;37.782;2023-05-10T09:01:56;4.82;;;2.80;;
33421;SDS011;19763;55.798;37.782;2023-05-10T09:04:23;7.93;;;2.67;;
33421;SDS011;19763;55.798;37.782;2023-05-10T09:06:49;12.25;;;4.18;;
33421;SDS011;19763;55.798;37.782;2023-05-10T09:09:15;5.88;;;2.58;;
33421;SDS011;19763;55.798;37.782;2023-05-10T09:11:43;2.67;;;2.40;;
33421;SDS011;19763;55.798;37.782;2023-05-10T09:14:09;4.18;;;2.00;;
33421;SDS011;19763;55.798;37.782;2023-05-10T09:16:37;4.53;;;2.40;;
33421;SDS011;19763;55.798;37.782;2023-05-10T09:19:03;5.15;;;2.40;;
33421;SDS011;19763;55.798;37.782;2023-05-10T09:21:28;3.75;;;2.33;;
33421;SDS011;19763;55.798;37.782;2023-05-10T09:23:56;5.18;;;2.22;;
33421;SDS011;19763;55.798;37.782;2023-05-10T09:26:22;2.95;;;2.10;;
33421;SDS011;19763;55.798;37.782;2023-05-10T09:28:56;9.55;;;2.70;;
33421;SDS011;19763;55.798;37.782;2023-05-10T09:31:22;4.47;;;1.98;;
33421;SDS011;19763;55.798;37.782;2023-05-10T09:33:50;5.38;;;1.92;;
33421;SDS011;19763;55.798;37.782;2023-05-10T09:36:17;3.25;;;1.90;;
33421;SDS011;19763;55.798;37.782;2023-05-10T09:38:47;2.13;;;1.92;;
33421;SDS011;19763;55.798;37.782;2023-05-10T09:41:22;3.35;;;1.80;;
33421;SDS011;19763;55.798;37.782;2023-05-10T09:43:49;4.13;;;2.20;;
33421;SDS011;19763;55.798;37.782;2023-05-10T09:46:15;5.25;;;2.00;;
33421;SDS011;19763;55.798;37.782;2023-05-10T09:48:45;3.03;;;2.25;;
33421;SDS011;19763;55.798;37.782;2023-05-10T09:51:21;2.70;;;1.90;;
33421;SDS011;19763;55.798;37.782;2023-05-10T09:53:48;3.42;;;2.05;;
33421;SDS011;19763;55.798;37.782;2023-05-10T09:56:34;3.28;;;2.20;;
33421;SDS011;19763;55.798;37.782;2023-05-10T09:59:02;3.75;;;1.92;;
33421;SDS011;19763;55.798;37.782;2023-05-10T10:01:28;3.85;;;2.20;;
33421;SDS011;19763;55.798;37.782;2023-05-10T10:03:54;2.25;;;1.75;;
33421;SDS011;19763;55.798;37.782;2023-05-10T10:06:22;3.58;;;1.80;;
33421;SDS011;19763;55.798;37.782;2023-05-10T10:08:48;3.97;;;1.90;;
33421;SDS011;19763;55.798;37.782;2023-05-10T10:11:15;3.60;;;1.90;;
33421;SDS011;19763;55.798;37.782;2023-05-10T10:13:41;5.05;;;1.98;;
33421;SDS011;19763;55.798;37.782;2023-05-10T10:16:07;4.05;;;1.90;;
33421;SDS011;19763;55.798;37.782;2023-05-10T10:18:33;3.03;;;2.00;;
33421;SDS011;19763;55.798;37.782;2023-05-10T10:21:04;4.85;;;2.17;;
33421;SDS011;19763;55.798;37.782;2023-05-10T10:23:32;2.22;;;1.98;;
33421;SDS011;19763;55.798;37.782;2023-05-10T10:25:57;5.53;;;2.20;;
33421;SDS011;19763;55.798;37.782;2023-05-10T10:34:24;3.90;;;2.30;;
33421;SDS011;19763;55.798;37.782;2023-05-10T10:36:55;6.38;;;2.45;;
33421;SDS011;19763;55.798;37.782;2023-05-10T10:39:22;3.45;;;1.98;;
33421;SDS011;19763;55.798;37.782;2023-05-10T10:44:23;7.57;;;2.65;;
33421;SDS011;19763;55.798;37.782;2023-05-10T10:50:01;5.07;;;2.13;;
33421;SDS011;19763;55.798;37.782;2023-05-10T10:52:33;4.00;;;2.30;;
33421;SDS011;19763;55.798;37.782;2023-05-10T10:55:05;2.75;;;2.00;;
33421;SDS011;19763;55.798;37.782;2023-05-10T11:10:35;5.35;;;1.90;;
33421;SDS011;19763;55.798;37.782;2023-05-10T11:13:05;4.95;;;1.88;;
33421;SDS011;19763;55.798;37.782;2023-05-10T11:15:32;4.18;;;1.67;;
33421;SDS011;19763;55.798;37.782;2023-05-10T11:18:23;6.23;;;2.20;;
33421;SDS011;19763;55.798;37.782;2023-05-10T11:20:54;3.58;;;2.00;;
33421;SDS011;19763;55.798;37.782;2023-05-10T11:23:20;3.90;;;2.00;;
33421;SDS011;19763;55.798;37.782;2023-05-10T11:25:47;4.95;;;2.10;;
33421;SDS011;19763;55.798;37.782;2023-05-10T11:28:13;4.18;;;2.13;;
33421;SDS011;19763;55.798;37.782;2023-05-10T11:30:40;3.20;;;1.80;;
33421;SDS011;19763;55.798;37.782;2023-05-10T11:33:08;2.65;;;1.95;;
33421;SDS011;19763;55.798;37.782;2023-05-10T11:35:38;4.35;;;1.98;;
33421;SDS011;19763;55.798;37.782;2023-05-10T11:38:07;2.92;;;2.00;;
33421;SDS011;19763;55.798;37.782;2023-05-10T11:40:34;3.55;;;2.40;;
33421;SDS011;19763;55.798;37.782;2023-05-10T11:43:01;3.42;;;2.20;;
33421;SDS011;19763;55.798;37.782;2023-05-10T11:45:27;3.35;;;2.10;;
33421;SDS011;19763;55.798;37.782;2023-05-10T11:47:57;4.18;;;1.95;;
33421;SDS011;19763;55.798;37.782;2023-05-10T11:50:23;3.60;;;2.00;;
33421;SDS011;19763;55.798;37.782;2023-05-10T11:52:52;6.00;;;1.95;;
33421;SDS011;19763;55.798;37.782;2023-05-10T11:55:18;2.55;;;2.05;;
33421;SDS011;19763;55.798;37.782;2023-05-10T11:57:44;4.45;;;1.92;;
33421;SDS011;19763;55.798;37.782;2023-05-10T12:00:11;4.57;;;2.50;;
33421;SDS011;19763;55.798;37.782;2023-05-10T12:02:38;6.60;;;2.40;;
33421;SDS011;19763;55.798;37.782;2023-05-10T12:05:04;7.53;;;2.35;;
33421;SDS011;19763;55.798;37.782;2023-05-10T12:07:31;3.75;;;1.85;;
33421;SDS011;19763;55.798;37.782;2023-05-10T12:10:12;2.85;;;2.08;;
33421;SDS011;19763;55.798;37.782;2023-05-10T12:12:46;4.28;;;1.75;;
33421;SDS011;19763;55.798;37.782;2023-05-10T12:15:22;2.25;;;1.80;;
33421;SDS011;19763;55.798;37.782;2023-05-10T12:17:49;4.65;;;2.08;;
33421;SDS011;19763;55.798;37.782;2023-05-10T12:20:16;3.20;;;1.70;;
33421;SDS011;19763;55.798;37.782;2023-05-10T12:22:56;3.45;;;2.30;;
33421;SDS011;19763;55.798;37.782;2023-05-10T12:25:24;2.95;;;2.30;;
33421;SDS011;19763;55.798;37.782;2023-05-10T12:27:55;3.13;;;2.20;;
33421;SDS011;19763;55.798;37.782;2023-05-10T12:30:28;2.72;;;1.92;;
33421;SDS011;19763;55.798;37.782;2023-05-10T12:35:31;2.85;;;2.00;;
33421;SDS011;19763;55.798;37.782;2023-05-10T12:37:57;2.55;;;2.03;;
33421;SDS011;19763;55.798;37.782;2023-05-10T12:40:24;3.47;;;2.00;;
33421;SDS011;19763;55.798;37.782;2023-05-10T12:42:49;3.70;;;2.00;;
33421;SDS011;19763;55.798;37.782;2023-05-10T12:45:17;2.80;;;1.98;;
33421;SDS011;19763;55.798;37.782;2023-05-10T12:47:43;2.30;;;1.63;;
33421;SDS011;19763;55.798;37.782;2023-05-10T12:50:09;2.85;;;2.30;;
33421;SDS011;19763;55.798;37.782;2023-05-10T12:52:35;4.55;;;2.15;;
33421;SDS011;19763;55.798;37.782;2023-05-10T12:55:01;3.53;;;2.05;;
33421;SDS011;19763;55.798;37.782;2023-05-10T12:57:29;3.33;;;2.05;;
33421;SDS011;19763;55.798;37.782;2023-05-10T12:59:55;7.95;;;2.10;;
33421;SDS011;19763;55.798;37.782;2023-05-10T13:02:21;2.75;;;1.90;;
33421;SDS011;19763;55.798;37.782;2023-05-10T13:04:48;3.95;;;2.00;;
33421;SDS011;19763;55.798;37.782;2023-05-10T13:07:13;3.20;;;1.70;;
33421;SDS011;19763;55.798;37.782;2023-05-10T13:09:39;7.15;;;2.05;;
33421;SDS011;19763;55.798;37.782;2023-05-10T13:12:05;2.55;;;1.88;;
33421;SDS011;19763;55.798;37.782;2023-05-10T13:14:31;5.15;;;2.20;;
33421;SDS011;19763;55.798;37.782;2023-05-10T13:16:56;3.20;;;2.15;;
33421;SDS011;19763;55.798;37.782;2023-05-10T13:19:22;4.80;;;2.15;;
33421;SDS011;19763;55.798;37.782;2023-05-10T13:21:47;5.00;;;2.33;;
33421;SDS011;19763;55.798;37.782;2023-05-10T13:24:13;2.38;;;1.83;;
33421;SDS011;19763;55.798;37.782;2023-05-10T13:26:39;2.60;;;1.90;;
33421;SDS011;19763;55.798;37.782;2023-05-10T13:29:06;3.30;;;2.10;;
33421;SDS011;19763;55.798;37.782;2023-05-10T13:31:32;5.50;;;2.03;;
33421;SDS011;19763;55.798;37.782;2023-05-10T13:33:59;6.00;;;2.25;;
33421;SDS011;19763;55.798;37.782;2023-05-10T13:36:24;3.78;;;1.80;;
33421;SDS011;19763;55.798;37.782;2023-05-10T13:38:50;4.20;;;2.38;;
33421;SDS011;19763;55.798;37.782;2023-05-10T13:41:16;2.58;;;1.85;;
33421;SDS011;19763;55.798;37.782;2023-05-10T13:43:41;4.03;;;2.40;;
33421;SDS011;19763;55.798;37.782;2023-05-10T13:46:07;4.47;;;2.30;;
33421;SDS011;19763;55.798;37.782;2023-05-10T13:48:32;3.05;;;2.33;;
33421;SDS011;19763;55.798;37.782;2023-05-10T13:50:58;4.18;;;2.10;;
33421;SDS011;19763;55.798;37.782;2023-05-10T13:53:24;5.63;;;2.17;;
33421;SDS011;19763;55.798;37.782;2023-05-10T13:55:49;4.22;;;2.35;;
33421;SDS011;19763;55.798;37.782;2023-05-10T13:58:15;4.13;;;2.25;;
33421;SDS011;19763;55.798;37.782;2023-05-10T14:00:40;5.03;;;2.20;;
33421;SDS011;19763;55.798;37.782;2023-05-10T14:03:06;3.00;;;1.95;;
33421;SDS011;19763;55.798;37.782;2023-05-10T14:05:34;2.13;;;1.90;;
33421;SDS011;19763;55.798;37.782;2023-05-10T14:07:59;5.15;;;2.25;;
33421;SDS011;19763;55.798;37.782;2023-05-10T14:10:25;2.35;;;1.77;;
33421;SDS011;19763;55.798;37.782;2023-05-10T14:12:50;4.45;;;2.33;;
33421;SDS011;19763;55.798;37.782;2023-05-10T14:15:16;2.83;;;2.22;;
33421;SDS011;19763;55.798;37.782;2023-05-10T14:17:42;5.80;;;2.53;;
33421;SDS011;19763;55.798;37.782;2023-05-10T14:20:07;3.78;;;2.45;;
33421;SDS011;19763;55.798;37.782;2023-05-10T14:22:33;5.13;;;2.40;;
33421;SDS011;19763;55.798;37.782;2023-05-10T14:25:00;3.33;;;2.00;;
33421;SDS011;19763;55.798;37.782;2023-05-10T14:27:26;4.50;;;1.90;;
33421;SDS011;19763;55.798;37.782;2023-05-10T14:29:51;3.35;;;2.30;;
33421;SDS011;19763;55.798;37.782;2023-05-10T14:32:18;6.18;;;2.03;;
33421;SDS011;19763;55.798;37.782;2023-05-10T14:34:44;3.08;;;1.85;;
33421;SDS011;19763;55.798;37.782;2023-05-10T14:37:10;3.17;;;2.20;;
33421;SDS011;19763;55.798;37.782;2023-05-10T14:39:36;5.38;;;2.10;;
33421;SDS011;19763;55.798;37.782;2023-05-10T14:42:02;5.82;;;2.22;;
33421;SDS011;19763;55.798;37.782;2023-05-10T14:44:28;4.63;;;2.30;;
33421;SDS011;19763;55.798;37.782;2023-05-10T14:46:54;5.50;;;2.22;;
33421;SDS011;19763;55.798;37.782;2023-05-10T14:49:21;3.22;;;2.00;;
33421;SDS011;19763;55.798;37.782;2023-05-10T14:51:47;2.47;;;1.98;;
33421;SDS011;19763;55.798;37.782;2023-05-10T14:54:13;2.83;;;1.85;;
33421;SDS011;19763;55.798;37.782;2023-05-10T14:56:39;3.55;;;2.17;;
33421;SDS011;19763;55.798;37.782;2023-05-10T14:59:06;7.15;;;2.20;;
33421;SDS011;19763;55.798;37.782;2023-05-10T15:01:32;3.28;;;2.42;;
33421;SDS011;19763;55.798;37.782;2023-05-10T15:04:00;2.63;;;2.10;;
33421;SDS011;19763;55.798;37.782;2023-05-10T15:06:32;15.73;;;3.25;;
33421;SDS011;19763;55.798;37.782;2023-05-10T15:08:59;6.65;;;2.40;;
33421;SDS011;19763;55.798;37.782;2023-05-10T15:11:26;38.47;;;23.55;;
33421;SDS011;19763;55.798;37.782;2023-05-10T15:13:52;6.38;;;3.83;;